VTPT

Details ICAO VTPT
Name Tak
Region Thailand
Timezone Asia/Bangkok (UTC+7.0)
Plans Departing 1
Arriving 0
Stats Elevation 478 ft / 146 m (AMSL)
Location 16.895988° 99.253351°
Runways 1
Magnetic Variation 0.682° W
Sunrise 2018-05-22 22:51:18 UTC / 2018-05-23 05:51:18 Local
Sunset 2018-05-23 11:50:59 UTC / 2018-05-23 18:50:59 Local
Advertisement - Login to hide

Runways

ID Width Length Bearing (true) Bearing (mag) Surface Threshold Offset Overrun Length
09 98 ft / 30 m 4,917 ft / 1,499 m 90.29° 90.97° Asphalt 0 ft / 0 m 246 ft / 75 m
27 98 ft / 30 m 4,917 ft / 1,499 m 270.30° 270.98° Asphalt 0 ft / 0 m 246 ft / 75 m

Map

Weather


0- 5 10 15 20 25 30 35+ Temperature / ° C

Clouds and Precipitation
Forecast for 2018-05-23 00:00 UTC. Updated 18 minutes ago

Ground ~20,000 ft ~40,000 ft Winds

METAR

Not found

TAF

TAF VTPT 221700Z 2218/2318 26005KT 9999 SCT035 TEMPO 2308/2315 VRB15G25KT 5000 TSRA FEW025CB BKN030

Frequencies

Tower 118.80 MHz TWR
Approach 120.70 MHz APP
Warning: Do not use this data for real-world aviation or navigation. No guarantee of current accuracy is given.